createdAt,value
2022-12-08T00:01:34.775Z,11.48
2022-12-08T00:04:05.965Z,10.80
2022-12-08T00:07:02.043Z,10.43
2022-12-08T00:09:41.611Z,10.95
2022-12-08T00:12:13.945Z,10.02
2022-12-08T00:14:47.743Z,11.13
2022-12-08T00:17:18.048Z,10.02
2022-12-08T00:19:46.421Z,9.40
2022-12-08T00:22:17.480Z,9.95
2022-12-08T00:24:46.338Z,10.43
2022-12-08T00:27:16.321Z,10.20
2022-12-08T00:29:46.128Z,10.13
2022-12-08T00:32:13.445Z,9.68
2022-12-08T00:34:40.857Z,8.88
2022-12-08T00:37:08.046Z,9.25
2022-12-08T00:39:35.379Z,9.43
2022-12-08T00:42:14.944Z,9.57
2022-12-08T00:44:46.463Z,10.20
2022-12-08T00:47:15.155Z,9.43
2022-12-08T00:49:42.789Z,9.13
2022-12-08T00:52:10.233Z,8.88
2022-12-08T00:54:37.527Z,9.30
2022-12-08T00:57:04.815Z,9.10
2022-12-08T00:59:32.029Z,9.88
2022-12-08T01:02:00.191Z,9.73
2022-12-08T01:04:27.961Z,9.35
2022-12-08T01:06:55.354Z,8.80
2022-12-08T01:09:23.162Z,9.68
2022-12-08T01:11:50.620Z,10.43
2022-12-08T01:14:21.617Z,11.00
2022-12-08T01:16:51.857Z,14.23
2022-12-08T01:19:19.599Z,12.30
2022-12-08T01:21:47.442Z,11.23
2022-12-08T01:24:21.303Z,10.77
2022-12-08T01:26:51.081Z,9.90
2022-12-08T01:29:18.666Z,9.82
2022-12-08T01:31:48.659Z,8.63
2022-12-08T01:34:18.419Z,9.48
2022-12-08T01:36:45.772Z,11.80
2022-12-08T01:39:19.604Z,12.02
2022-12-08T01:41:47.809Z,11.15
2022-12-08T01:44:15.006Z,10.65
2022-12-08T01:46:47.334Z,11.25
2022-12-08T01:49:28.426Z,9.52
2022-12-08T01:52:25.105Z,9.50
2022-12-08T01:55:04.800Z,10.52
2022-12-08T01:57:42.091Z,9.90
2022-12-08T02:00:17.753Z,9.85
2022-12-08T02:03:04.591Z,10.45
2022-12-08T02:05:37.875Z,10.10
2022-12-08T02:08:11.359Z,10.35
2022-12-08T02:10:43.397Z,10.13
2022-12-08T02:13:17.374Z,10.60
2022-12-08T02:16:22.028Z,11.32
2022-12-08T02:19:48.022Z,11.15
2022-12-08T02:22:41.468Z,10.82
2022-12-08T02:25:35.608Z,9.55
2022-12-08T02:29:05.549Z,9.75
2022-12-08T02:32:18.052Z,9.10
2022-12-08T02:34:58.806Z,8.95
2022-12-08T02:37:46.562Z,8.68
2022-12-08T02:40:57.769Z,9.85
2022-12-08T02:43:48.217Z,9.90
2022-12-08T02:46:34.415Z,10.18
2022-12-08T02:49:03.565Z,11.27
2022-12-08T02:51:30.982Z,10.20
2022-12-08T02:53:59.146Z,9.75
2022-12-08T02:57:12.842Z,10.45
2022-12-08T03:00:11.301Z,9.77
2022-12-08T03:03:32.949Z,9.75
2022-12-08T03:06:37.100Z,9.82
2022-12-08T03:09:22.813Z,9.77
2022-12-08T03:12:40.129Z,8.63
2022-12-08T03:15:17.126Z,9.82
2022-12-08T03:17:55.639Z,9.77
2022-12-08T03:20:28.222Z,9.80
2022-12-08T03:23:00.596Z,9.60
2022-12-08T03:25:40.635Z,9.60
2022-12-08T03:28:08.324Z,10.65
2022-12-08T03:30:43.410Z,10.35
2022-12-08T03:33:24.247Z,11.43
2022-12-08T03:35:53.579Z,10.40
2022-12-08T03:38:22.520Z,10.15
2022-12-08T03:41:09.903Z,11.65
2022-12-08T03:43:40.187Z,11.02
2022-12-08T03:46:07.509Z,10.40
2022-12-08T03:48:34.673Z,11.20
2022-12-08T03:51:01.853Z,11.20
2022-12-08T03:53:29.247Z,11.15
2022-12-08T03:55:56.768Z,10.77
2022-12-08T03:58:24.153Z,10.75
2022-12-08T04:00:51.481Z,10.45
2022-12-08T04:03:18.832Z,10.25
2022-12-08T04:05:46.618Z,10.60
2022-12-08T04:08:14.247Z,11.02
2022-12-08T04:10:41.386Z,9.80
2022-12-08T04:13:08.524Z,10.45
2022-12-08T04:15:35.723Z,11.50
2022-12-08T04:18:02.939Z,10.57
2022-12-08T04:20:30.148Z,11.23
2022-12-08T04:22:58.664Z,10.25
2022-12-08T04:25:25.945Z,10.80
2022-12-08T04:27:53.104Z,10.35
2022-12-08T04:30:20.457Z,9.55
2022-12-08T04:32:47.803Z,10.80
2022-12-08T04:35:15.097Z,10.57
2022-12-08T04:37:43.194Z,10.70
2022-12-08T04:40:13.096Z,10.40
2022-12-08T04:42:40.602Z,10.70
2022-12-08T04:45:08.393Z,11.43
2022-12-08T04:47:35.899Z,12.20
2022-12-08T04:50:07.048Z,11.98
2022-12-08T04:52:35.083Z,11.43
2022-12-08T04:55:03.440Z,11.07
2022-12-08T04:57:30.771Z,10.32
2022-12-08T04:59:58.205Z,10.23
2022-12-08T05:02:26.116Z,11.32
2022-12-08T05:05:18.514Z,10.27
2022-12-08T05:07:45.945Z,11.52
2022-12-08T05:10:13.346Z,11.48
2022-12-08T05:12:40.555Z,9.63
2022-12-08T05:15:09.718Z,11.40
2022-12-08T05:17:37.017Z,11.23
2022-12-08T05:20:06.159Z,11.75
2022-12-08T05:22:33.727Z,11.43
2022-12-08T05:25:01.281Z,10.98
2022-12-08T05:27:28.592Z,11.55
2022-12-08T05:29:56.621Z,11.43
2022-12-08T05:32:24.547Z,11.57
2022-12-08T05:34:51.871Z,12.15
2022-12-08T05:37:19.186Z,11.73
2022-12-08T05:39:46.560Z,11.45
2022-12-08T05:42:13.911Z,12.50
2022-12-08T05:44:41.268Z,11.90
2022-12-08T05:47:08.651Z,12.05
2022-12-08T05:49:42.841Z,11.93
2022-12-08T05:52:10.238Z,12.43
2022-12-08T05:54:38.077Z,12.07
2022-12-08T05:57:05.785Z,12.85
2022-12-08T05:59:33.249Z,12.07
2022-12-08T06:02:06.389Z,11.45
2022-12-08T06:04:34.503Z,11.35
2022-12-08T06:07:01.767Z,12.48
2022-12-08T06:09:29.078Z,12.23
2022-12-08T06:11:59.316Z,11.35
2022-12-08T06:14:27.000Z,11.40
2022-12-08T06:16:55.961Z,11.48
2022-12-08T06:19:23.193Z,12.57
2022-12-08T06:21:50.558Z,12.80
2022-12-08T06:24:19.161Z,12.93
2022-12-08T06:26:49.304Z,12.32
2022-12-08T06:29:16.742Z,12.90
2022-12-08T06:31:44.636Z,11.73
2022-12-08T06:34:12.298Z,13.65
2022-12-08T06:36:40.120Z,13.38
2022-12-08T06:39:09.209Z,12.80
2022-12-08T06:41:56.607Z,12.90
2022-12-08T06:44:24.102Z,16.17
2022-12-08T06:46:51.349Z,14.57
2022-12-08T06:49:18.634Z,14.85
2022-12-08T06:51:45.964Z,15.00
2022-12-08T06:54:16.449Z,14.35
2022-12-08T06:56:43.686Z,12.50
2022-12-08T06:59:16.023Z,13.20
2022-12-08T07:01:44.042Z,12.02
2022-12-08T07:04:11.774Z,12.50
2022-12-08T07:06:39.379Z,12.52
2022-12-08T07:09:06.614Z,12.07
2022-12-08T07:11:33.851Z,12.13
2022-12-08T07:14:01.262Z,13.13
2022-12-08T07:16:28.833Z,12.07
2022-12-08T07:18:56.287Z,12.60
2022-12-08T07:21:23.841Z,12.35
2022-12-08T07:23:55.973Z,13.10
2022-12-08T07:26:25.819Z,12.93
2022-12-08T07:28:55.714Z,15.02
2022-12-08T07:31:28.992Z,14.13
2022-12-08T07:34:02.555Z,14.32
2022-12-08T07:36:32.508Z,15.48
2022-12-08T07:39:00.200Z,14.80
2022-12-08T07:41:29.272Z,14.90
2022-12-08T07:43:57.544Z,14.48
2022-12-08T07:46:35.177Z,14.40
2022-12-08T07:49:09.498Z,15.27
2022-12-08T07:51:44.339Z,15.93
2022-12-08T07:54:13.847Z,14.75
2022-12-08T07:56:41.511Z,14.80
2022-12-08T07:59:08.993Z,14.93
2022-12-08T08:01:36.527Z,14.68
2022-12-08T08:04:06.286Z,14.98
2022-12-08T08:06:36.266Z,13.85
2022-12-08T08:09:06.673Z,14.27
2022-12-08T08:11:34.124Z,14.10
2022-12-08T08:14:01.465Z,14.60
2022-12-08T08:16:33.520Z,15.48
2022-12-08T08:19:03.854Z,15.50
2022-12-08T08:21:46.944Z,14.90
2022-12-08T08:24:14.267Z,14.07
2022-12-08T08:26:47.071Z,14.20
2022-12-08T08:29:15.761Z,13.85
2022-12-08T08:31:43.273Z,14.63
2022-12-08T08:34:10.596Z,14.02
2022-12-08T08:36:38.774Z,14.13
2022-12-08T08:39:08.877Z,13.35
2022-12-08T08:41:36.120Z,14.48
2022-12-08T08:44:03.785Z,13.30
2022-12-08T08:46:32.874Z,13.77
2022-12-08T08:49:01.287Z,14.00
2022-12-08T08:51:28.636Z,12.82
2022-12-08T08:53:55.887Z,11.82
2022-12-08T08:56:23.421Z,12.65
2022-12-08T08:58:52.908Z,13.60
2022-12-08T09:01:27.857Z,13.07
2022-12-08T09:03:56.278Z,13.07
2022-12-08T09:06:24.846Z,12.60
2022-12-08T09:08:52.352Z,13.38
2022-12-08T09:11:19.940Z,13.23
2022-12-08T09:13:53.452Z,12.52
2022-12-08T09:16:23.665Z,11.82
2022-12-08T09:18:52.127Z,12.60
2022-12-08T09:21:26.007Z,13.70
2022-12-08T09:23:58.791Z,12.85
2022-12-08T09:26:28.821Z,10.20
2022-12-08T09:28:57.941Z,10.05
2022-12-08T09:31:25.799Z,8.60
2022-12-08T09:33:53.380Z,8.35
2022-12-08T09:36:21.474Z,8.43
2022-12-08T09:38:50.278Z,8.18
2022-12-08T09:41:36.494Z,8.00
2022-12-08T09:44:55.307Z,7.40
2022-12-08T09:47:35.716Z,8.23
2022-12-08T09:50:53.639Z,7.57
2022-12-08T09:53:35.243Z,7.40
2022-12-08T09:56:16.637Z,7.65
2022-12-08T09:59:04.770Z,7.07
2022-12-08T10:01:42.300Z,7.00
2022-12-08T10:04:36.925Z,7.22
2022-12-08T10:07:17.977Z,6.80
2022-12-08T10:10:36.947Z,7.32
2022-12-08T10:13:28.175Z,6.93
2022-12-08T10:16:35.335Z,7.20
2022-12-08T10:19:14.377Z,7.07
2022-12-08T10:21:42.426Z,6.22
2022-12-08T10:24:37.938Z,7.18
2022-12-08T10:27:11.872Z,6.57
2022-12-08T10:29:40.773Z,5.93
2022-12-08T10:32:24.670Z,6.60
2022-12-08T10:35:11.020Z,6.05
2022-12-08T10:37:39.886Z,6.60
2022-12-08T10:40:17.549Z,6.63
2022-12-08T10:42:53.139Z,6.70
2022-12-08T10:45:41.590Z,6.50
2022-12-08T10:48:31.198Z,6.30
2022-12-08T10:51:00.564Z,7.63
2022-12-08T10:53:33.258Z,7.35
2022-12-08T10:56:03.460Z,4.93
2022-12-08T10:58:47.259Z,6.47
2022-12-08T11:01:31.203Z,4.93
2022-12-08T11:04:10.920Z,5.50
2022-12-08T11:06:41.140Z,6.50
2022-12-08T11:09:48.597Z,5.38
2022-12-08T11:12:22.237Z,4.53
2022-12-08T11:15:01.362Z,5.32
2022-12-08T11:17:40.671Z,4.85
2022-12-08T11:20:10.364Z,5.18
2022-12-08T11:22:41.370Z,4.80
2022-12-08T11:25:10.397Z,5.03
2022-12-08T11:27:46.785Z,4.95
2022-12-08T11:30:27.516Z,4.57
2022-12-08T11:33:19.698Z,4.68
2022-12-08T11:35:59.320Z,4.80
2022-12-08T11:38:41.315Z,4.70
2022-12-08T11:41:22.912Z,4.80
2022-12-08T11:44:24.345Z,4.88
2022-12-08T11:46:59.920Z,4.50
2022-12-08T11:49:40.366Z,4.57
2022-12-08T11:52:34.645Z,4.45
2022-12-08T11:55:41.567Z,4.65
2022-12-08T11:58:52.373Z,4.30
2022-12-08T12:01:28.085Z,4.80
2022-12-08T12:04:24.702Z,4.05
2022-12-08T12:08:04.067Z,4.30
2022-12-08T12:11:49.585Z,4.55
2022-12-08T12:14:50.814Z,3.70
2022-12-08T12:18:05.497Z,4.55
2022-12-08T12:20:54.457Z,4.47
2022-12-08T12:23:47.394Z,4.20
2022-12-08T12:26:39.576Z,4.40
2022-12-08T12:29:27.760Z,4.63
2022-12-08T12:32:07.546Z,4.40
2022-12-08T12:34:53.581Z,4.20
2022-12-08T12:37:38.643Z,4.30
2022-12-08T12:40:23.623Z,4.53
2022-12-08T12:42:57.175Z,4.00
2022-12-08T12:45:34.586Z,3.75
2022-12-08T12:48:04.077Z,4.03
2022-12-08T12:50:34.271Z,3.88
2022-12-08T12:53:26.878Z,4.07
2022-12-08T12:56:02.545Z,4.47
2022-12-08T12:58:32.724Z,4.22
2022-12-08T13:01:17.874Z,4.35
2022-12-08T13:04:35.665Z,4.28
2022-12-08T13:07:04.776Z,5.05
2022-12-08T13:09:37.846Z,4.60
2022-12-08T13:12:20.318Z,4.40
2022-12-08T13:14:51.701Z,4.57
2022-12-08T13:17:38.383Z,4.53
2022-12-08T13:20:19.747Z,4.30
2022-12-08T13:22:54.663Z,4.78
2022-12-08T13:25:39.958Z,4.68
2022-12-08T13:28:16.288Z,4.78
2022-12-08T13:31:01.427Z,4.57
2022-12-08T13:33:38.994Z,4.28
2022-12-08T13:36:46.247Z,3.88
2022-12-08T13:39:29.953Z,3.97
2022-12-08T13:42:12.814Z,3.90
2022-12-08T13:45:24.087Z,4.10
2022-12-08T13:48:55.854Z,4.40
2022-12-08T13:55:19.734Z,4.20
2022-12-08T13:57:36.320Z,3.17
2022-12-08T14:00:30.442Z,3.30
2022-12-08T14:03:01.915Z,3.08
2022-12-08T14:06:11.245Z,3.42
2022-12-08T14:11:44.243Z,3.08
2022-12-08T14:15:00.701Z,3.00
2022-12-08T14:17:23.014Z,3.28
2022-12-08T14:20:13.580Z,3.10
2022-12-08T14:22:42.093Z,3.33
2022-12-08T14:25:17.316Z,4.13
2022-12-08T14:27:46.788Z,4.57
2022-12-08T14:30:14.469Z,3.15
2022-12-08T14:33:03.415Z,3.38
2022-12-08T14:35:34.803Z,3.50
2022-12-08T14:38:16.150Z,4.43
2022-12-08T14:40:47.914Z,5.13
2022-12-08T14:43:29.973Z,3.80
2022-12-08T14:46:19.437Z,3.65
2022-12-08T14:48:47.665Z,4.40
2022-12-08T14:51:23.731Z,3.60
2022-12-08T14:54:09.442Z,3.55
2022-12-08T14:56:43.637Z,3.53
2022-12-08T14:59:37.230Z,3.67
2022-12-08T15:02:25.349Z,4.20
2022-12-08T15:05:17.848Z,4.20
2022-12-08T15:08:05.010Z,4.00
2022-12-08T15:10:39.898Z,4.57
2022-12-08T15:13:22.991Z,4.32
2022-12-08T15:15:56.310Z,3.78
2022-12-08T15:18:40.630Z,4.53
2022-12-08T15:21:12.843Z,4.50
2022-12-08T15:23:48.099Z,4.05
2022-12-08T15:26:25.225Z,6.15
2022-12-08T15:28:54.150Z,5.10
2022-12-08T15:31:21.981Z,5.70
2022-12-08T15:33:49.259Z,4.97
2022-12-08T15:36:16.580Z,4.95
2022-12-08T15:38:44.470Z,4.78
2022-12-08T15:41:15.283Z,6.07
2022-12-08T15:43:43.159Z,5.88
2022-12-08T15:46:12.033Z,4.90
2022-12-08T15:48:39.720Z,5.45
2022-12-08T15:51:07.400Z,7.43
2022-12-08T15:53:34.900Z,6.63
2022-12-08T15:58:57.245Z,5.60
2022-12-08T16:01:25.885Z,5.97
2022-12-08T16:09:41.486Z,5.20
2022-12-08T16:15:51.593Z,5.03
2022-12-08T16:18:30.400Z,5.07
2022-12-08T16:23:50.850Z,5.32
2022-12-08T16:29:20.732Z,4.97
2022-12-08T16:31:49.161Z,5.28
2022-12-08T16:34:16.593Z,5.30
2022-12-08T16:36:43.894Z,5.20
2022-12-08T16:39:14.593Z,5.15
2022-12-08T16:42:00.911Z,5.32
2022-12-08T16:44:28.630Z,5.30
2022-12-08T16:46:55.929Z,5.45
2022-12-08T16:49:23.155Z,5.80
2022-12-08T16:51:50.547Z,5.05
2022-12-08T16:54:18.120Z,4.72
2022-12-08T16:56:45.340Z,5.60
2022-12-08T16:59:12.623Z,5.70
2022-12-08T17:01:44.667Z,5.57
2022-12-08T17:04:31.177Z,5.20
2022-12-08T17:07:00.035Z,5.70
2022-12-08T17:09:28.730Z,6.07
2022-12-08T17:12:01.892Z,6.30
2022-12-08T17:14:35.304Z,6.15
2022-12-08T17:17:03.345Z,5.78
2022-12-08T17:19:30.677Z,5.68
2022-12-08T17:21:58.154Z,6.35
2022-12-08T17:24:29.093Z,6.60
2022-12-08T17:27:03.852Z,5.80
2022-12-08T17:29:32.886Z,5.70
2022-12-08T17:32:01.538Z,5.95
2022-12-08T17:34:28.948Z,6.07
2022-12-08T17:36:56.540Z,6.05
2022-12-08T17:39:23.842Z,7.13
2022-12-08T17:41:51.136Z,6.22
2022-12-08T17:44:20.045Z,7.22
2022-12-08T17:46:52.420Z,6.70
2022-12-08T17:49:26.795Z,6.68
2022-12-08T17:51:59.405Z,6.28
2022-12-08T17:54:48.274Z,7.40
2022-12-08T17:57:21.232Z,7.22
2022-12-08T17:59:49.574Z,6.93
2022-12-08T18:02:47.219Z,7.60
2022-12-08T18:05:14.944Z,7.72
2022-12-08T18:07:42.602Z,7.88
2022-12-08T18:10:10.576Z,7.45
2022-12-08T18:12:38.079Z,7.57
2022-12-08T18:15:11.383Z,7.45
2022-12-08T18:17:41.729Z,7.15
2022-12-08T18:20:10.460Z,7.07
2022-12-08T18:22:38.239Z,7.53
2022-12-08T18:25:07.708Z,7.55
2022-12-08T18:27:41.453Z,7.70
2022-12-08T18:30:17.930Z,7.13
2022-12-08T18:32:46.163Z,7.50
2022-12-08T18:35:14.699Z,7.80
2022-12-08T18:37:43.210Z,7.78
2022-12-08T18:40:12.184Z,8.13
2022-12-08T18:42:39.764Z,8.75
2022-12-08T18:45:08.481Z,8.55
2022-12-08T18:47:40.651Z,8.10
2022-12-08T18:50:11.785Z,9.35
2022-12-08T18:52:39.416Z,7.63
2022-12-08T18:55:08.130Z,6.70
2022-12-08T18:57:42.729Z,8.18
2022-12-08T19:00:17.355Z,8.52
2022-12-08T19:03:14.257Z,9.15
2022-12-08T19:05:41.750Z,9.68
2022-12-08T19:08:09.138Z,8.75
2022-12-08T19:10:38.370Z,10.65
2022-12-08T19:13:08.971Z,11.70
2022-12-08T19:15:36.370Z,11.68
2022-12-08T19:18:07.056Z,11.45
2022-12-08T19:20:34.524Z,14.18
2022-12-08T19:23:02.033Z,11.70
2022-12-08T19:25:29.360Z,9.45
2022-12-08T19:27:56.876Z,8.55
2022-12-08T19:30:27.592Z,8.45
2022-12-08T19:32:57.293Z,9.30
2022-12-08T19:35:24.825Z,8.80
2022-12-08T19:37:53.341Z,9.55
2022-12-08T19:40:42.381Z,9.48
2022-12-08T19:43:41.867Z,9.30
2022-12-08T19:46:11.194Z,10.95
2022-12-08T19:48:39.298Z,10.52
2022-12-08T19:51:07.114Z,13.93
2022-12-08T19:53:47.569Z,14.73
2022-12-08T19:56:15.333Z,9.27
2022-12-08T19:58:45.253Z,11.93
2022-12-08T20:01:18.979Z,11.52
2022-12-08T20:03:48.723Z,10.70
2022-12-08T20:06:18.604Z,9.48
2022-12-08T20:08:50.765Z,10.57
2022-12-08T20:11:18.598Z,10.80
2022-12-08T20:17:39.242Z,14.32
2022-12-08T20:20:09.674Z,13.95
2022-12-08T20:22:37.760Z,12.77
2022-12-08T20:25:06.134Z,13.57
2022-12-08T20:27:33.629Z,13.77
2022-12-08T20:30:26.798Z,12.98
2022-12-08T20:32:54.735Z,11.00
2022-12-08T20:35:22.638Z,12.75
2022-12-08T20:37:50.753Z,13.38
2022-12-08T20:40:18.252Z,12.90
2022-12-08T20:42:45.658Z,12.40
2022-12-08T20:45:13.188Z,12.52
2022-12-08T20:47:40.632Z,15.85
2022-12-08T20:50:09.858Z,13.15
2022-12-08T20:52:38.031Z,12.68
2022-12-08T20:55:07.984Z,13.32
2022-12-08T20:57:41.009Z,11.80
2022-12-08T21:00:10.466Z,12.70
2022-12-08T21:02:45.180Z,12.02
2022-12-08T21:05:16.408Z,10.85
2022-12-08T21:07:44.498Z,12.10
2022-12-08T21:10:12.420Z,13.25
2022-12-08T21:12:40.275Z,14.40
2022-12-08T21:15:17.024Z,11.35
2022-12-08T21:17:53.590Z,10.38
2022-12-08T21:20:42.744Z,10.55
2022-12-08T21:23:11.498Z,11.38
2022-12-08T21:25:45.763Z,15.52
2022-12-08T21:28:13.895Z,14.75
2022-12-08T21:30:43.533Z,12.43
2022-12-08T21:33:11.234Z,10.20
2022-12-08T21:35:38.842Z,12.85
2022-12-08T21:38:07.452Z,10.68
2022-12-08T21:40:35.998Z,11.13
2022-12-08T21:43:24.205Z,9.68
2022-12-08T21:45:52.686Z,11.57
2022-12-08T21:48:21.029Z,10.70
2022-12-08T21:50:48.748Z,10.40
2022-12-08T21:53:16.568Z,10.18
2022-12-08T21:55:44.100Z,11.15
2022-12-08T21:58:11.579Z,10.20
2022-12-08T22:00:39.362Z,10.90
2022-12-08T22:03:14.343Z,10.70
2022-12-08T22:05:44.378Z,11.45
2022-12-08T22:08:11.752Z,11.23
2022-12-08T22:10:39.680Z,10.25
2022-12-08T22:13:07.259Z,9.63
2022-12-08T22:15:35.361Z,8.57
2022-12-08T22:18:03.836Z,9.75
2022-12-08T22:20:31.495Z,11.02
2022-12-08T22:22:59.003Z,9.98
2022-12-08T22:25:26.465Z,10.18
2022-12-08T22:27:53.950Z,8.68
2022-12-08T22:30:21.572Z,8.68
2022-12-08T22:32:49.154Z,10.15
2022-12-08T22:35:16.517Z,9.55
2022-12-08T22:37:43.840Z,9.80
2022-12-08T22:40:12.880Z,9.45
2022-12-08T22:42:40.222Z,9.93
2022-12-08T22:45:10.077Z,11.70
2022-12-08T22:47:40.135Z,11.40
2022-12-08T22:50:09.283Z,10.60
2022-12-08T22:52:37.065Z,9.80
2022-12-08T22:55:05.208Z,9.23
2022-12-08T22:57:32.763Z,10.48
2022-12-08T23:00:00.543Z,13.52
2022-12-08T23:02:28.045Z,9.25
2022-12-08T23:04:58.658Z,8.77
2022-12-08T23:07:49.092Z,13.48
2022-12-08T23:10:14.574Z,11.05
2022-12-08T23:12:42.043Z,8.05
2022-12-08T23:15:22.144Z,8.50
2022-12-08T23:17:49.768Z,10.85
2022-12-08T23:20:17.793Z,8.35
2022-12-08T23:22:45.480Z,9.02
2022-12-08T23:25:13.077Z,10.57
2022-12-08T23:27:40.804Z,10.27
2022-12-08T23:30:12.352Z,9.43
2022-12-08T23:32:40.104Z,8.10
2022-12-08T23:35:09.039Z,9.05
2022-12-08T23:37:36.585Z,9.05
2022-12-08T23:40:05.668Z,8.48
2022-12-08T23:42:33.410Z,8.13
2022-12-08T23:45:00.868Z,8.65
2022-12-08T23:47:28.398Z,8.52
2022-12-08T23:49:55.912Z,8.43
2022-12-08T23:52:24.406Z,7.45
2022-12-08T23:54:52.702Z,7.72
2022-12-08T23:57:21.342Z,7.53
2022-12-08T23:59:55.919Z,7.63
